sensor_id;sensor_type;location;lat;lon;timestamp;P1;durP1;ratioP1;P2;durP2;ratioP2
15818;SDS011;8010;53.986;12.106;2023-01-10T00:00:25;10.33;;;5.00;;
15818;SDS011;8010;53.986;12.106;2023-01-10T00:02:56;7.90;;;5.20;;
15818;SDS011;8010;53.986;12.106;2023-01-10T00:05:21;9.07;;;5.27;;
15818;SDS011;8010;53.986;12.106;2023-01-10T00:07:47;11.30;;;5.80;;
15818;SDS011;8010;53.986;12.106;2023-01-10T00:10:12;14.17;;;6.57;;
15818;SDS011;8010;53.986;12.106;2023-01-10T00:12:38;12.97;;;7.20;;
15818;SDS011;8010;53.986;12.106;2023-01-10T00:15:22;11.57;;;6.97;;
15818;SDS011;8010;53.986;12.106;2023-01-10T00:17:47;12.40;;;6.80;;
15818;SDS011;8010;53.986;12.106;2023-01-10T00:20:13;13.07;;;6.57;;
15818;SDS011;8010;53.986;12.106;2023-01-10T00:22:39;13.43;;;7.10;;
15818;SDS011;8010;53.986;12.106;2023-01-10T00:25:04;13.40;;;7.57;;
15818;SDS011;8010;53.986;12.106;2023-01-10T00:27:30;15.77;;;9.00;;
15818;SDS011;8010;53.986;12.106;2023-01-10T00:29:56;16.97;;;8.70;;
15818;SDS011;8010;53.986;12.106;2023-01-10T00:32:25;16.77;;;9.17;;
15818;SDS011;8010;53.986;12.106;2023-01-10T00:34:50;16.97;;;8.40;;
15818;SDS011;8010;53.986;12.106;2023-01-10T00:37:16;17.90;;;9.33;;
15818;SDS011;8010;53.986;12.106;2023-01-10T00:39:42;16.40;;;9.43;;
15818;SDS011;8010;53.986;12.106;2023-01-10T00:42:09;18.00;;;9.27;;
15818;SDS011;8010;53.986;12.106;2023-01-10T00:44:54;14.63;;;7.93;;
15818;SDS011;8010;53.986;12.106;2023-01-10T00:47:19;23.03;;;9.33;;
15818;SDS011;8010;53.986;12.106;2023-01-10T00:49:45;16.33;;;8.67;;
15818;SDS011;8010;53.986;12.106;2023-01-10T00:52:10;18.70;;;8.63;;
15818;SDS011;8010;53.986;12.106;2023-01-10T00:54:36;18.23;;;9.03;;
15818;SDS011;8010;53.986;12.106;2023-01-10T00:57:02;18.00;;;9.10;;
15818;SDS011;8010;53.986;12.106;2023-01-10T00:59:27;20.07;;;10.17;;
15818;SDS011;8010;53.986;12.106;2023-01-10T01:01:53;15.60;;;8.73;;
15818;SDS011;8010;53.986;12.106;2023-01-10T01:04:19;18.70;;;9.50;;
15818;SDS011;8010;53.986;12.106;2023-01-10T01:06:44;18.10;;;10.00;;
15818;SDS011;8010;53.986;12.106;2023-01-10T01:09:12;22.80;;;10.00;;
15818;SDS011;8010;53.986;12.106;2023-01-10T01:11:37;19.30;;;9.40;;
15818;SDS011;8010;53.986;12.106;2023-01-10T01:14:03;18.00;;;9.63;;
15818;SDS011;8010;53.986;12.106;2023-01-10T01:16:29;19.57;;;10.20;;
15818;SDS011;8010;53.986;12.106;2023-01-10T01:18:55;18.10;;;9.93;;
15818;SDS011;8010;53.986;12.106;2023-01-10T01:21:21;19.57;;;9.63;;
15818;SDS011;8010;53.986;12.106;2023-01-10T01:23:51;19.17;;;10.33;;
15818;SDS011;8010;53.986;12.106;2023-01-10T01:26:21;18.67;;;9.53;;
15818;SDS011;8010;53.986;12.106;2023-01-10T01:28:47;22.00;;;11.03;;
15818;SDS011;8010;53.986;12.106;2023-01-10T01:31:13;21.37;;;10.57;;
15818;SDS011;8010;53.986;12.106;2023-01-10T01:33:38;19.13;;;10.37;;
15818;SDS011;8010;53.986;12.106;2023-01-10T01:36:07;20.47;;;10.80;;
15818;SDS011;8010;53.986;12.106;2023-01-10T01:38:35;20.43;;;10.70;;
15818;SDS011;8010;53.986;12.106;2023-01-10T01:41:01;21.10;;;11.10;;
15818;SDS011;8010;53.986;12.106;2023-01-10T01:43:28;24.87;;;11.27;;
15818;SDS011;8010;53.986;12.106;2023-01-10T01:45:56;23.47;;;11.47;;
15818;SDS011;8010;53.986;12.106;2023-01-10T01:48:33;23.63;;;11.23;;
15818;SDS011;8010;53.986;12.106;2023-01-10T01:53:39;26.73;;;11.63;;
15818;SDS011;8010;53.986;12.106;2023-01-10T01:56:20;21.20;;;10.70;;
15818;SDS011;8010;53.986;12.106;2023-01-10T01:58:55;23.77;;;11.13;;
15818;SDS011;8010;53.986;12.106;2023-01-10T02:01:33;21.10;;;10.57;;
15818;SDS011;8010;53.986;12.106;2023-01-10T02:04:12;22.57;;;10.40;;
15818;SDS011;8010;53.986;12.106;2023-01-10T02:06:51;20.17;;;10.17;;
15818;SDS011;8010;53.986;12.106;2023-01-10T02:09:28;21.43;;;10.47;;
15818;SDS011;8010;53.986;12.106;2023-01-10T02:11:56;25.10;;;11.50;;
15818;SDS011;8010;53.986;12.106;2023-01-10T02:14:22;23.60;;;11.17;;
15818;SDS011;8010;53.986;12.106;2023-01-10T02:16:50;27.13;;;11.47;;
15818;SDS011;8010;53.986;12.106;2023-01-10T02:22:36;27.23;;;10.67;;
15818;SDS011;8010;53.986;12.106;2023-01-10T02:31:14;24.30;;;10.87;;
15818;SDS011;8010;53.986;12.106;2023-01-10T02:42:01;26.23;;;11.73;;
15818;SDS011;8010;53.986;12.106;2023-01-10T02:47:16;21.17;;;10.00;;
15818;SDS011;8010;53.986;12.106;2023-01-10T02:49:43;25.50;;;10.93;;
15818;SDS011;8010;53.986;12.106;2023-01-10T02:52:11;26.50;;;11.17;;
15818;SDS011;8010;53.986;12.106;2023-01-10T02:54:42;25.57;;;11.27;;
15818;SDS011;8010;53.986;12.106;2023-01-10T02:57:29;26.43;;;12.10;;
15818;SDS011;8010;53.986;12.106;2023-01-10T03:00:18;23.73;;;11.17;;
15818;SDS011;8010;53.986;12.106;2023-01-10T03:05:47;27.33;;;11.33;;
15818;SDS011;8010;53.986;12.106;2023-01-10T03:08:49;21.13;;;11.00;;
15818;SDS011;8010;53.986;12.106;2023-01-10T03:11:39;24.80;;;11.07;;
15818;SDS011;8010;53.986;12.106;2023-01-10T03:14:18;29.60;;;12.20;;
15818;SDS011;8010;53.986;12.106;2023-01-10T03:17:09;32.13;;;12.57;;
15818;SDS011;8010;53.986;12.106;2023-01-10T03:19:37;22.87;;;10.50;;
15818;SDS011;8010;53.986;12.106;2023-01-10T03:22:07;24.73;;;10.87;;
15818;SDS011;8010;53.986;12.106;2023-01-10T03:24:37;23.07;;;11.23;;
15818;SDS011;8010;53.986;12.106;2023-01-10T03:29:54;25.37;;;10.60;;
15818;SDS011;8010;53.986;12.106;2023-01-10T03:32:27;21.87;;;11.67;;
15818;SDS011;8010;53.986;12.106;2023-01-10T03:34:54;24.60;;;11.03;;
15818;SDS011;8010;53.986;12.106;2023-01-10T03:40:14;20.53;;;9.63;;
15818;SDS011;8010;53.986;12.106;2023-01-10T03:42:46;22.17;;;9.97;;
15818;SDS011;8010;53.986;12.106;2023-01-10T03:48:45;20.70;;;9.87;;
15818;SDS011;8010;53.986;12.106;2023-01-10T03:51:13;21.53;;;9.40;;
15818;SDS011;8010;53.986;12.106;2023-01-10T03:53:41;23.63;;;10.50;;
15818;SDS011;8010;53.986;12.106;2023-01-10T03:56:09;19.20;;;9.70;;
15818;SDS011;8010;53.986;12.106;2023-01-10T03:58:38;24.00;;;9.63;;
15818;SDS011;8010;53.986;12.106;2023-01-10T04:01:03;28.00;;;9.83;;
15818;SDS011;8010;53.986;12.106;2023-01-10T04:03:29;25.87;;;10.13;;
15818;SDS011;8010;53.986;12.106;2023-01-10T04:05:54;21.23;;;9.77;;
15818;SDS011;8010;53.986;12.106;2023-01-10T04:08:20;20.73;;;9.70;;
15818;SDS011;8010;53.986;12.106;2023-01-10T04:10:47;20.57;;;9.40;;
15818;SDS011;8010;53.986;12.106;2023-01-10T04:13:13;32.10;;;9.97;;
15818;SDS011;8010;53.986;12.106;2023-01-10T04:15:38;20.07;;;9.27;;
15818;SDS011;8010;53.986;12.106;2023-01-10T04:18:04;20.40;;;9.07;;
15818;SDS011;8010;53.986;12.106;2023-01-10T04:20:29;20.57;;;9.30;;
15818;SDS011;8010;53.986;12.106;2023-01-10T04:22:55;19.50;;;9.13;;
15818;SDS011;8010;53.986;12.106;2023-01-10T04:25:21;19.63;;;9.63;;
15818;SDS011;8010;53.986;12.106;2023-01-10T04:27:47;21.37;;;8.70;;
15818;SDS011;8010;53.986;12.106;2023-01-10T04:30:14;25.30;;;10.43;;
15818;SDS011;8010;53.986;12.106;2023-01-10T04:32:40;21.13;;;9.63;;
15818;SDS011;8010;53.986;12.106;2023-01-10T04:35:06;24.23;;;10.10;;
15818;SDS011;8010;53.986;12.106;2023-01-10T04:37:31;19.50;;;9.87;;
15818;SDS011;8010;53.986;12.106;2023-01-10T04:39:57;21.40;;;10.10;;
15818;SDS011;8010;53.986;12.106;2023-01-10T04:42:23;26.93;;;10.00;;
15818;SDS011;8010;53.986;12.106;2023-01-10T04:44:48;21.63;;;8.60;;
15818;SDS011;8010;53.986;12.106;2023-01-10T04:47:14;23.80;;;9.37;;
15818;SDS011;8010;53.986;12.106;2023-01-10T04:49:39;19.30;;;8.40;;
15818;SDS011;8010;53.986;12.106;2023-01-10T04:52:05;17.17;;;8.00;;
15818;SDS011;8010;53.986;12.106;2023-01-10T04:54:30;20.60;;;8.23;;
15818;SDS011;8010;53.986;12.106;2023-01-10T04:56:56;18.07;;;7.43;;
15818;SDS011;8010;53.986;12.106;2023-01-10T04:59:21;22.43;;;7.63;;
15818;SDS011;8010;53.986;12.106;2023-01-10T05:01:47;16.03;;;7.10;;
15818;SDS011;8010;53.986;12.106;2023-01-10T05:04:13;19.00;;;8.27;;
15818;SDS011;8010;53.986;12.106;2023-01-10T05:06:39;16.33;;;7.27;;
15818;SDS011;8010;53.986;12.106;2023-01-10T05:09:05;20.73;;;7.33;;
15818;SDS011;8010;53.986;12.106;2023-01-10T05:11:31;17.07;;;7.13;;
15818;SDS011;8010;53.986;12.106;2023-01-10T05:13:57;19.83;;;7.10;;
15818;SDS011;8010;53.986;12.106;2023-01-10T05:16:23;20.70;;;8.30;;
15818;SDS011;8010;53.986;12.106;2023-01-10T05:18:49;20.40;;;8.37;;
15818;SDS011;8010;53.986;12.106;2023-01-10T05:21:15;15.40;;;6.70;;
15818;SDS011;8010;53.986;12.106;2023-01-10T05:23:41;14.97;;;6.40;;
15818;SDS011;8010;53.986;12.106;2023-01-10T05:26:08;15.90;;;7.03;;
15818;SDS011;8010;53.986;12.106;2023-01-10T05:28:39;18.23;;;6.50;;
15818;SDS011;8010;53.986;12.106;2023-01-10T05:31:05;9.93;;;6.20;;
15818;SDS011;8010;53.986;12.106;2023-01-10T05:33:36;17.73;;;5.97;;
15818;SDS011;8010;53.986;12.106;2023-01-10T05:36:02;16.37;;;5.63;;
15818;SDS011;8010;53.986;12.106;2023-01-10T05:38:29;14.07;;;6.17;;
15818;SDS011;8010;53.986;12.106;2023-01-10T05:40:56;14.97;;;6.17;;
15818;SDS011;8010;53.986;12.106;2023-01-10T05:43:22;13.30;;;5.57;;
15818;SDS011;8010;53.986;12.106;2023-01-10T05:45:48;10.53;;;5.30;;
15818;SDS011;8010;53.986;12.106;2023-01-10T05:48:14;11.90;;;5.80;;
15818;SDS011;8010;53.986;12.106;2023-01-10T05:50:40;14.47;;;5.30;;
15818;SDS011;8010;53.986;12.106;2023-01-10T05:53:05;10.87;;;5.07;;
15818;SDS011;8010;53.986;12.106;2023-01-10T05:55:31;15.20;;;5.80;;
15818;SDS011;8010;53.986;12.106;2023-01-10T05:57:57;8.33;;;4.63;;
15818;SDS011;8010;53.986;12.106;2023-01-10T06:00:23;11.27;;;5.17;;
15818;SDS011;8010;53.986;12.106;2023-01-10T06:02:49;13.50;;;5.10;;
15818;SDS011;8010;53.986;12.106;2023-01-10T06:05:14;14.27;;;5.40;;
15818;SDS011;8010;53.986;12.106;2023-01-10T06:07:40;7.23;;;4.33;;
15818;SDS011;8010;53.986;12.106;2023-01-10T06:10:06;12.73;;;4.40;;
15818;SDS011;8010;53.986;12.106;2023-01-10T06:12:31;11.70;;;5.10;;
15818;SDS011;8010;53.986;12.106;2023-01-10T06:14:57;13.33;;;4.87;;
15818;SDS011;8010;53.986;12.106;2023-01-10T06:17:22;11.73;;;4.80;;
15818;SDS011;8010;53.986;12.106;2023-01-10T06:19:48;11.07;;;5.33;;
15818;SDS011;8010;53.986;12.106;2023-01-10T06:22:16;13.03;;;5.17;;
15818;SDS011;8010;53.986;12.106;2023-01-10T06:24:41;10.23;;;4.30;;
15818;SDS011;8010;53.986;12.106;2023-01-10T06:27:07;9.57;;;4.37;;
15818;SDS011;8010;53.986;12.106;2023-01-10T06:29:32;7.60;;;4.57;;
15818;SDS011;8010;53.986;12.106;2023-01-10T06:31:58;11.37;;;4.63;;
15818;SDS011;8010;53.986;12.106;2023-01-10T06:34:24;8.10;;;4.73;;
15818;SDS011;8010;53.986;12.106;2023-01-10T06:36:49;10.50;;;4.43;;
15818;SDS011;8010;53.986;12.106;2023-01-10T06:39:15;11.03;;;4.57;;
15818;SDS011;8010;53.986;12.106;2023-01-10T06:41:40;6.37;;;4.57;;
15818;SDS011;8010;53.986;12.106;2023-01-10T06:44:06;11.80;;;4.07;;
15818;SDS011;8010;53.986;12.106;2023-01-10T06:46:32;7.70;;;4.10;;
15818;SDS011;8010;53.986;12.106;2023-01-10T06:48:57;12.47;;;4.23;;
15818;SDS011;8010;53.986;12.106;2023-01-10T06:51:23;9.93;;;4.50;;
15818;SDS011;8010;53.986;12.106;2023-01-10T06:53:48;11.43;;;3.93;;
15818;SDS011;8010;53.986;12.106;2023-01-10T06:56:14;10.47;;;4.00;;
15818;SDS011;8010;53.986;12.106;2023-01-10T06:58:39;15.83;;;4.80;;
15818;SDS011;8010;53.986;12.106;2023-01-10T07:01:05;13.10;;;5.03;;
15818;SDS011;8010;53.986;12.106;2023-01-10T07:03:32;8.43;;;5.00;;
15818;SDS011;8010;53.986;12.106;2023-01-10T07:06:00;15.60;;;5.53;;
15818;SDS011;8010;53.986;12.106;2023-01-10T07:08:27;8.63;;;4.00;;
15818;SDS011;8010;53.986;12.106;2023-01-10T07:10:55;11.57;;;4.50;;
15818;SDS011;8010;53.986;12.106;2023-01-10T07:13:22;10.10;;;4.23;;
15818;SDS011;8010;53.986;12.106;2023-01-10T07:15:48;11.17;;;4.50;;
15818;SDS011;8010;53.986;12.106;2023-01-10T07:18:13;11.43;;;4.03;;
15818;SDS011;8010;53.986;12.106;2023-01-10T07:20:39;10.73;;;4.63;;
15818;SDS011;8010;53.986;12.106;2023-01-10T07:23:04;10.43;;;4.97;;
15818;SDS011;8010;53.986;12.106;2023-01-10T07:25:30;10.60;;;4.07;;
15818;SDS011;8010;53.986;12.106;2023-01-10T07:27:55;10.43;;;4.27;;
15818;SDS011;8010;53.986;12.106;2023-01-10T07:30:21;16.30;;;4.80;;
15818;SDS011;8010;53.986;12.106;2023-01-10T07:32:56;15.63;;;5.10;;
15818;SDS011;8010;53.986;12.106;2023-01-10T07:35:22;11.20;;;4.83;;
15818;SDS011;8010;53.986;12.106;2023-01-10T07:37:49;13.93;;;4.10;;
15818;SDS011;8010;53.986;12.106;2023-01-10T07:40:15;7.87;;;3.90;;
15818;SDS011;8010;53.986;12.106;2023-01-10T07:42:40;12.40;;;4.30;;
15818;SDS011;8010;53.986;12.106;2023-01-10T07:45:06;12.00;;;4.20;;
15818;SDS011;8010;53.986;12.106;2023-01-10T07:47:32;6.23;;;3.27;;
15818;SDS011;8010;53.986;12.106;2023-01-10T07:49:59;12.20;;;4.17;;
15818;SDS011;8010;53.986;12.106;2023-01-10T07:52:24;9.87;;;3.80;;
15818;SDS011;8010;53.986;12.106;2023-01-10T07:54:50;7.50;;;3.33;;
15818;SDS011;8010;53.986;12.106;2023-01-10T07:57:17;9.70;;;3.43;;
15818;SDS011;8010;53.986;12.106;2023-01-10T07:59:43;8.50;;;3.77;;
15818;SDS011;8010;53.986;12.106;2023-01-10T08:02:09;9.53;;;3.80;;
15818;SDS011;8010;53.986;12.106;2023-01-10T08:04:35;10.43;;;4.57;;
15818;SDS011;8010;53.986;12.106;2023-01-10T08:07:02;13.47;;;4.00;;
15818;SDS011;8010;53.986;12.106;2023-01-10T08:09:28;8.93;;;3.70;;
15818;SDS011;8010;53.986;12.106;2023-01-10T08:11:53;8.20;;;3.17;;
15818;SDS011;8010;53.986;12.106;2023-01-10T08:14:19;12.23;;;3.63;;
15818;SDS011;8010;53.986;12.106;2023-01-10T08:16:44;11.83;;;3.70;;
15818;SDS011;8010;53.986;12.106;2023-01-10T08:19:10;5.70;;;3.50;;
15818;SDS011;8010;53.986;12.106;2023-01-10T08:21:40;11.33;;;4.27;;
15818;SDS011;8010;53.986;12.106;2023-01-10T08:24:06;10.40;;;4.00;;
15818;SDS011;8010;53.986;12.106;2023-01-10T08:26:32;8.60;;;3.70;;
15818;SDS011;8010;53.986;12.106;2023-01-10T08:28:57;6.43;;;3.30;;
15818;SDS011;8010;53.986;12.106;2023-01-10T08:31:24;7.00;;;3.87;;
15818;SDS011;8010;53.986;12.106;2023-01-10T08:33:49;6.37;;;3.50;;
15818;SDS011;8010;53.986;12.106;2023-01-10T08:36:18;9.13;;;3.27;;
15818;SDS011;8010;53.986;12.106;2023-01-10T08:38:46;12.83;;;3.73;;
15818;SDS011;8010;53.986;12.106;2023-01-10T08:41:11;7.60;;;3.63;;
15818;SDS011;8010;53.986;12.106;2023-01-10T08:43:37;13.67;;;3.50;;
15818;SDS011;8010;53.986;12.106;2023-01-10T08:46:04;8.90;;;3.43;;
15818;SDS011;8010;53.986;12.106;2023-01-10T08:48:30;11.87;;;2.77;;
15818;SDS011;8010;53.986;12.106;2023-01-10T08:50:55;8.57;;;3.07;;
15818;SDS011;8010;53.986;12.106;2023-01-10T08:53:21;9.00;;;3.57;;
15818;SDS011;8010;53.986;12.106;2023-01-10T08:55:50;15.73;;;4.43;;
15818;SDS011;8010;53.986;12.106;2023-01-10T08:58:15;11.90;;;3.50;;
15818;SDS011;8010;53.986;12.106;2023-01-10T09:00:41;11.37;;;3.40;;
15818;SDS011;8010;53.986;12.106;2023-01-10T09:03:06;8.43;;;3.60;;
15818;SDS011;8010;53.986;12.106;2023-01-10T09:05:32;7.77;;;3.27;;
15818;SDS011;8010;53.986;12.106;2023-01-10T09:07:58;14.43;;;3.83;;
15818;SDS011;8010;53.986;12.106;2023-01-10T09:10:28;9.20;;;4.17;;
15818;SDS011;8010;53.986;12.106;2023-01-10T09:12:53;10.37;;;3.93;;
15818;SDS011;8010;53.986;12.106;2023-01-10T09:15:23;10.73;;;4.17;;
15818;SDS011;8010;53.986;12.106;2023-01-10T09:17:56;15.80;;;3.97;;
15818;SDS011;8010;53.986;12.106;2023-01-10T09:20:24;9.67;;;3.50;;
15818;SDS011;8010;53.986;12.106;2023-01-10T09:22:50;9.23;;;3.97;;
15818;SDS011;8010;53.986;12.106;2023-01-10T09:25:16;15.63;;;4.43;;
15818;SDS011;8010;53.986;12.106;2023-01-10T09:27:42;13.77;;;3.80;;
15818;SDS011;8010;53.986;12.106;2023-01-10T09:30:07;11.13;;;3.50;;
15818;SDS011;8010;53.986;12.106;2023-01-10T09:32:33;12.50;;;4.50;;
15818;SDS011;8010;53.986;12.106;2023-01-10T09:34:59;13.73;;;4.27;;
15818;SDS011;8010;53.986;12.106;2023-01-10T09:37:24;11.30;;;4.90;;
15818;SDS011;8010;53.986;12.106;2023-01-10T09:39:50;10.60;;;4.33;;
15818;SDS011;8010;53.986;12.106;2023-01-10T09:42:19;16.00;;;4.67;;
15818;SDS011;8010;53.986;12.106;2023-01-10T09:45:20;10.13;;;4.70;;
15818;SDS011;8010;53.986;12.106;2023-01-10T09:48:00;9.23;;;4.30;;
15818;SDS011;8010;53.986;12.106;2023-01-10T09:53:11;12.00;;;5.13;;
15818;SDS011;8010;53.986;12.106;2023-01-10T09:55:41;9.13;;;4.77;;
15818;SDS011;8010;53.986;12.106;2023-01-10T09:58:12;13.07;;;4.93;;
15818;SDS011;8010;53.986;12.106;2023-01-10T10:06:29;9.63;;;4.10;;
15818;SDS011;8010;53.986;12.106;2023-01-10T10:08:58;13.70;;;4.47;;
15818;SDS011;8010;53.986;12.106;2023-01-10T10:22:23;13.13;;;4.90;;
15818;SDS011;8010;53.986;12.106;2023-01-10T10:38:40;16.90;;;8.37;;
15818;SDS011;8010;53.986;12.106;2023-01-10T10:44:02;16.73;;;4.17;;
15818;SDS011;8010;53.986;12.106;2023-01-10T10:46:46;8.00;;;4.00;;
15818;SDS011;8010;53.986;12.106;2023-01-10T10:49:21;11.33;;;4.20;;
15818;SDS011;8010;53.986;12.106;2023-01-10T10:52:11;7.47;;;3.67;;
15818;SDS011;8010;53.986;12.106;2023-01-10T10:54:43;9.83;;;4.10;;
15818;SDS011;8010;53.986;12.106;2023-01-10T10:57:10;16.73;;;4.20;;
15818;SDS011;8010;53.986;12.106;2023-01-10T10:59:36;10.33;;;4.27;;
15818;SDS011;8010;53.986;12.106;2023-01-10T11:02:02;14.80;;;4.03;;
15818;SDS011;8010;53.986;12.106;2023-01-10T11:04:35;13.90;;;4.83;;
15818;SDS011;8010;53.986;12.106;2023-01-10T11:07:01;6.93;;;3.70;;
15818;SDS011;8010;53.986;12.106;2023-01-10T11:09:27;13.60;;;4.20;;
15818;SDS011;8010;53.986;12.106;2023-01-10T11:12:12;9.07;;;3.23;;
15818;SDS011;8010;53.986;12.106;2023-01-10T11:14:43;10.27;;;4.33;;
15818;SDS011;8010;53.986;12.106;2023-01-10T11:17:18;12.23;;;4.47;;
15818;SDS011;8010;53.986;12.106;2023-01-10T11:19:59;13.37;;;4.67;;
15818;SDS011;8010;53.986;12.106;2023-01-10T11:22:28;16.50;;;4.57;;
15818;SDS011;8010;53.986;12.106;2023-01-10T11:24:58;10.60;;;5.10;;
15818;SDS011;8010;53.986;12.106;2023-01-10T11:27:27;10.87;;;4.93;;
15818;SDS011;8010;53.986;12.106;2023-01-10T11:32:33;9.20;;;4.40;;
15818;SDS011;8010;53.986;12.106;2023-01-10T11:35:18;10.40;;;4.40;;
15818;SDS011;8010;53.986;12.106;2023-01-10T11:40:58;12.27;;;4.33;;
15818;SDS011;8010;53.986;12.106;2023-01-10T11:45:59;9.57;;;4.70;;
15818;SDS011;8010;53.986;12.106;2023-01-10T11:48:32;15.00;;;4.70;;
15818;SDS011;8010;53.986;12.106;2023-01-10T11:51:25;14.50;;;5.53;;
15818;SDS011;8010;53.986;12.106;2023-01-10T11:57:07;11.17;;;4.33;;
15818;SDS011;8010;53.986;12.106;2023-01-10T11:59:48;13.60;;;5.00;;
15818;SDS011;8010;53.986;12.106;2023-01-10T12:02:19;9.77;;;4.33;;
15818;SDS011;8010;53.986;12.106;2023-01-10T12:04:48;15.07;;;5.43;;
15818;SDS011;8010;53.986;12.106;2023-01-10T12:07:15;11.30;;;4.53;;
15818;SDS011;8010;53.986;12.106;2023-01-10T12:09:43;9.97;;;4.60;;
15818;SDS011;8010;53.986;12.106;2023-01-10T12:14:48;9.93;;;4.13;;
15818;SDS011;8010;53.986;12.106;2023-01-10T12:20:00;7.73;;;4.10;;
15818;SDS011;8010;53.986;12.106;2023-01-10T12:22:29;9.27;;;4.27;;
15818;SDS011;8010;53.986;12.106;2023-01-10T12:25:02;11.87;;;3.30;;
15818;SDS011;8010;53.986;12.106;2023-01-10T12:27:33;10.43;;;3.70;;
15818;SDS011;8010;53.986;12.106;2023-01-10T12:32:51;17.90;;;4.23;;
15818;SDS011;8010;53.986;12.106;2023-01-10T12:35:19;5.07;;;3.07;;
15818;SDS011;8010;53.986;12.106;2023-01-10T12:37:50;8.50;;;3.17;;
15818;SDS011;8010;53.986;12.106;2023-01-10T12:40:36;8.03;;;3.50;;
15818;SDS011;8010;53.986;12.106;2023-01-10T12:43:16;8.80;;;3.60;;
15818;SDS011;8010;53.986;12.106;2023-01-10T12:46:23;8.83;;;3.80;;
15818;SDS011;8010;53.986;12.106;2023-01-10T12:49:16;7.50;;;3.03;;
15818;SDS011;8010;53.986;12.106;2023-01-10T12:51:45;7.93;;;3.43;;
15818;SDS011;8010;53.986;12.106;2023-01-10T12:54:18;12.23;;;3.50;;
15818;SDS011;8010;53.986;12.106;2023-01-10T12:56:48;9.83;;;3.87;;
15818;SDS011;8010;53.986;12.106;2023-01-10T13:01:55;10.03;;;3.37;;
15818;SDS011;8010;53.986;12.106;2023-01-10T13:04:26;9.40;;;3.50;;
15818;SDS011;8010;53.986;12.106;2023-01-10T13:06:53;6.60;;;3.13;;
15818;SDS011;8010;53.986;12.106;2023-01-10T13:09:24;10.43;;;3.67;;
15818;SDS011;8010;53.986;12.106;2023-01-10T13:15:03;7.40;;;3.30;;
15818;SDS011;8010;53.986;12.106;2023-01-10T13:17:42;10.77;;;3.53;;
15818;SDS011;8010;53.986;12.106;2023-01-10T13:22:41;8.13;;;3.40;;
15818;SDS011;8010;53.986;12.106;2023-01-10T13:25:19;7.60;;;3.30;;
15818;SDS011;8010;53.986;12.106;2023-01-10T13:30:27;18.43;;;4.20;;
15818;SDS011;8010;53.986;12.106;2023-01-10T13:33:05;12.47;;;2.73;;
15818;SDS011;8010;53.986;12.106;2023-01-10T13:35:49;8.63;;;3.23;;
15818;SDS011;8010;53.986;12.106;2023-01-10T13:38:18;8.70;;;3.20;;
15818;SDS011;8010;53.986;12.106;2023-01-10T13:41:04;6.40;;;3.50;;
15818;SDS011;8010;53.986;12.106;2023-01-10T13:48:41;10.37;;;3.00;;
15818;SDS011;8010;53.986;12.106;2023-01-10T13:51:27;7.10;;;3.33;;
15818;SDS011;8010;53.986;12.106;2023-01-10T13:53:58;12.80;;;3.17;;
15818;SDS011;8010;53.986;12.106;2023-01-10T13:56:29;9.10;;;2.80;;
15818;SDS011;8010;53.986;12.106;2023-01-10T13:58:55;11.60;;;3.23;;
15818;SDS011;8010;53.986;12.106;2023-01-10T14:01:40;6.83;;;2.60;;
15818;SDS011;8010;53.986;12.106;2023-01-10T14:04:26;8.40;;;2.40;;
15818;SDS011;8010;53.986;12.106;2023-01-10T14:06:58;11.40;;;2.70;;
15818;SDS011;8010;53.986;12.106;2023-01-10T14:09:29;13.43;;;3.63;;
15818;SDS011;8010;53.986;12.106;2023-01-10T14:12:17;8.83;;;3.00;;
15818;SDS011;8010;53.986;12.106;2023-01-10T14:14:48;7.23;;;2.80;;
15818;SDS011;8010;53.986;12.106;2023-01-10T14:17:20;11.27;;;3.00;;
15818;SDS011;8010;53.986;12.106;2023-01-10T14:19:59;10.33;;;3.77;;
15818;SDS011;8010;53.986;12.106;2023-01-10T14:22:31;8.80;;;3.03;;
15818;SDS011;8010;53.986;12.106;2023-01-10T14:25:00;12.27;;;2.80;;
15818;SDS011;8010;53.986;12.106;2023-01-10T14:27:37;10.03;;;3.10;;
15818;SDS011;8010;53.986;12.106;2023-01-10T14:30:14;7.97;;;2.77;;
15818;SDS011;8010;53.986;12.106;2023-01-10T14:33:20;10.60;;;2.83;;
15818;SDS011;8010;53.986;12.106;2023-01-10T14:35:50;11.40;;;3.20;;
15818;SDS011;8010;53.986;12.106;2023-01-10T14:38:23;7.07;;;3.20;;
15818;SDS011;8010;53.986;12.106;2023-01-10T14:43:41;10.03;;;2.83;;
15818;SDS011;8010;53.986;12.106;2023-01-10T14:46:14;9.47;;;3.50;;
15818;SDS011;8010;53.986;12.106;2023-01-10T14:48:47;7.83;;;3.37;;
15818;SDS011;8010;53.986;12.106;2023-01-10T14:53:45;11.40;;;3.57;;
15818;SDS011;8010;53.986;12.106;2023-01-10T14:56:21;12.03;;;3.10;;
15818;SDS011;8010;53.986;12.106;2023-01-10T14:58:49;10.00;;;3.50;;
15818;SDS011;8010;53.986;12.106;2023-01-10T15:01:17;8.97;;;2.90;;
15818;SDS011;8010;53.986;12.106;2023-01-10T15:03:49;11.33;;;3.27;;
15818;SDS011;8010;53.986;12.106;2023-01-10T15:06:15;7.70;;;2.70;;
15818;SDS011;8010;53.986;12.106;2023-01-10T15:08:41;12.50;;;4.47;;
15818;SDS011;8010;53.986;12.106;2023-01-10T15:11:08;10.03;;;3.70;;
15818;SDS011;8010;53.986;12.106;2023-01-10T15:13:40;10.87;;;3.77;;
15818;SDS011;8010;53.986;12.106;2023-01-10T15:16:19;11.40;;;4.23;;
15818;SDS011;8010;53.986;12.106;2023-01-10T15:18:46;10.50;;;3.83;;
15818;SDS011;8010;53.986;12.106;2023-01-10T15:21:14;10.90;;;3.40;;
15818;SDS011;8010;53.986;12.106;2023-01-10T15:23:42;10.20;;;3.37;;
15818;SDS011;8010;53.986;12.106;2023-01-10T15:26:10;14.30;;;4.73;;
15818;SDS011;8010;53.986;12.106;2023-01-10T15:28:40;14.70;;;4.40;;
15818;SDS011;8010;53.986;12.106;2023-01-10T15:31:07;6.43;;;3.33;;
15818;SDS011;8010;53.986;12.106;2023-01-10T15:33:35;14.63;;;3.90;;
15818;SDS011;8010;53.986;12.106;2023-01-10T15:36:03;9.73;;;3.33;;
15818;SDS011;8010;53.986;12.106;2023-01-10T15:38:31;8.63;;;3.80;;
15818;SDS011;8010;53.986;12.106;2023-01-10T15:41:02;10.50;;;3.73;;
15818;SDS011;8010;53.986;12.106;2023-01-10T15:43:30;13.40;;;3.77;;
15818;SDS011;8010;53.986;12.106;2023-01-10T15:45:58;8.23;;;3.67;;
15818;SDS011;8010;53.986;12.106;2023-01-10T15:48:28;12.93;;;4.37;;
15818;SDS011;8010;53.986;12.106;2023-01-10T15:56:23;10.97;;;4.07;;
15818;SDS011;8010;53.986;12.106;2023-01-10T15:58:51;14.60;;;3.67;;
15818;SDS011;8010;53.986;12.106;2023-01-10T16:01:17;12.80;;;3.87;;
15818;SDS011;8010;53.986;12.106;2023-01-10T16:03:44;10.97;;;3.97;;
15818;SDS011;8010;53.986;12.106;2023-01-10T16:06:17;8.13;;;3.47;;
15818;SDS011;8010;53.986;12.106;2023-01-10T16:08:53;11.90;;;3.10;;
15818;SDS011;8010;53.986;12.106;2023-01-10T16:11:21;13.43;;;3.70;;
15818;SDS011;8010;53.986;12.106;2023-01-10T16:14:08;8.63;;;3.97;;
15818;SDS011;8010;53.986;12.106;2023-01-10T16:16:34;14.60;;;3.67;;
15818;SDS011;8010;53.986;12.106;2023-01-10T16:19:00;8.43;;;3.63;;
15818;SDS011;8010;53.986;12.106;2023-01-10T16:21:26;7.47;;;3.57;;
15818;SDS011;8010;53.986;12.106;2023-01-10T16:23:58;14.07;;;5.00;;
15818;SDS011;8010;53.986;12.106;2023-01-10T16:26:24;11.03;;;4.00;;
15818;SDS011;8010;53.986;12.106;2023-01-10T16:28:50;8.70;;;3.90;;
15818;SDS011;8010;53.986;12.106;2023-01-10T16:31:15;12.47;;;4.07;;
15818;SDS011;8010;53.986;12.106;2023-01-10T16:33:41;9.13;;;3.97;;
15818;SDS011;8010;53.986;12.106;2023-01-10T16:36:16;9.10;;;4.23;;
15818;SDS011;8010;53.986;12.106;2023-01-10T16:38:44;11.67;;;3.70;;
15818;SDS011;8010;53.986;12.106;2023-01-10T16:41:10;8.67;;;3.60;;
15818;SDS011;8010;53.986;12.106;2023-01-10T16:43:56;13.20;;;4.40;;
15818;SDS011;8010;53.986;12.106;2023-01-10T16:46:21;9.90;;;3.93;;